createdAt,value
2023-05-19T00:00:55.654Z,4.82
2023-05-19T00:03:22.826Z,4.90
2023-05-19T00:05:50.542Z,5.25
2023-05-19T00:08:18.438Z,4.63
2023-05-19T00:10:45.409Z,4.43
2023-05-19T00:13:12.664Z,5.13
2023-05-19T00:15:40.202Z,4.05
2023-05-19T00:18:09.041Z,5.18
2023-05-19T00:20:35.854Z,4.93
2023-05-19T00:23:02.367Z,5.63
2023-05-19T00:27:55.360Z,4.78
2023-05-19T00:32:49.625Z,4.85
2023-05-19T00:35:16.524Z,5.18
2023-05-19T00:37:43.163Z,5.05
2023-05-19T00:42:36.955Z,4.40
2023-05-19T00:45:03.654Z,4.72
2023-05-19T00:47:30.281Z,4.47
2023-05-19T00:49:56.879Z,4.60
2023-05-19T00:52:23.645Z,5.28
2023-05-19T00:54:52.853Z,5.30
2023-05-19T00:57:20.870Z,4.32
2023-05-19T00:59:48.536Z,3.50
2023-05-19T01:02:15.165Z,5.00
2023-05-19T01:04:43.826Z,5.05
2023-05-19T01:07:12.473Z,4.80
2023-05-19T01:09:40.749Z,4.22
2023-05-19T01:12:08.676Z,6.05
2023-05-19T01:14:35.366Z,5.32
2023-05-19T01:17:14.313Z,4.63
2023-05-19T01:19:56.818Z,4.63
2023-05-19T01:22:48.691Z,4.45
2023-05-19T01:25:42.667Z,3.88
2023-05-19T01:28:48.346Z,4.72
2023-05-19T01:31:16.910Z,4.50
2023-05-19T01:33:44.258Z,5.22
2023-05-19T01:36:12.285Z,5.55
2023-05-19T01:38:39.995Z,5.20
2023-05-19T01:41:06.979Z,4.88
2023-05-19T01:43:35.959Z,4.60
2023-05-19T01:46:03.198Z,4.40
2023-05-19T01:48:30.533Z,4.60
2023-05-19T01:50:58.002Z,4.82
2023-05-19T01:53:25.373Z,6.10
2023-05-19T01:55:55.171Z,5.15
2023-05-19T01:58:52.461Z,5.20
2023-05-19T02:01:30.437Z,5.70
2023-05-19T02:04:26.406Z,5.78
2023-05-19T02:07:12.286Z,5.10
2023-05-19T02:09:56.869Z,5.43
2023-05-19T02:12:25.940Z,4.97
2023-05-19T02:15:06.072Z,5.72
2023-05-19T02:17:38.368Z,5.00
2023-05-19T02:20:05.991Z,6.85
2023-05-19T02:22:32.852Z,5.97
2023-05-19T02:24:59.456Z,5.28
2023-05-19T02:29:53.279Z,5.18
2023-05-19T02:32:20.767Z,5.05
2023-05-19T02:34:47.744Z,5.10
2023-05-19T02:37:15.198Z,6.07
2023-05-19T02:39:42.781Z,5.13
2023-05-19T02:42:09.588Z,4.53
2023-05-19T02:44:36.536Z,6.38
2023-05-19T02:47:03.172Z,5.35
2023-05-19T02:49:35.885Z,5.53
2023-05-19T02:52:03.547Z,5.65
2023-05-19T02:54:30.844Z,5.43
2023-05-19T02:56:58.104Z,5.85
2023-05-19T02:59:25.727Z,5.20
2023-05-19T03:01:56.079Z,5.63
2023-05-19T03:04:22.678Z,5.70
2023-05-19T03:06:50.167Z,5.88
2023-05-19T03:09:16.735Z,8.32
2023-05-19T03:14:09.876Z,7.10
2023-05-19T03:16:36.621Z,5.90
2023-05-19T03:19:03.391Z,5.85
2023-05-19T03:21:30.445Z,6.38
2023-05-19T03:23:57.204Z,6.03
2023-05-19T03:26:24.696Z,6.72
2023-05-19T03:31:17.805Z,6.63
2023-05-19T03:33:44.545Z,5.85
2023-05-19T03:36:12.807Z,6.22
2023-05-19T03:38:39.733Z,6.57
2023-05-19T03:43:32.803Z,6.22
2023-05-19T03:46:02.799Z,7.28
2023-05-19T03:48:49.702Z,7.07
2023-05-19T03:51:43.098Z,5.82
2023-05-19T03:54:32.632Z,5.97
2023-05-19T03:56:59.198Z,6.55
2023-05-19T04:01:52.797Z,6.57
2023-05-19T04:04:19.522Z,6.47
2023-05-19T04:06:46.258Z,5.88
2023-05-19T04:09:15.835Z,6.15
2023-05-19T04:11:43.121Z,6.25
2023-05-19T04:14:09.824Z,5.18
2023-05-19T04:16:36.770Z,5.88
2023-05-19T04:19:03.357Z,5.72
2023-05-19T04:23:59.196Z,5.68
2023-05-19T04:26:26.934Z,5.97
2023-05-19T04:28:57.831Z,6.00
2023-05-19T04:31:24.546Z,6.63
2023-05-19T04:33:53.478Z,6.00
2023-05-19T04:36:21.761Z,4.95
2023-05-19T04:38:54.851Z,6.13
2023-05-19T04:41:23.461Z,5.72
2023-05-19T04:43:50.083Z,5.53
2023-05-19T04:46:18.272Z,5.53
2023-05-19T04:48:45.216Z,5.70
2023-05-19T04:51:14.174Z,6.10
2023-05-19T04:53:41.775Z,5.63
2023-05-19T04:56:13.624Z,6.03
2023-05-19T04:58:41.978Z,5.40
2023-05-19T05:01:09.620Z,6.00
2023-05-19T05:03:37.062Z,6.00
2023-05-19T05:06:04.573Z,6.13
2023-05-19T05:08:31.160Z,5.57
2023-05-19T05:10:58.726Z,5.40
2023-05-19T05:13:26.303Z,5.68
2023-05-19T05:15:54.196Z,5.45
2023-05-19T05:18:21.297Z,5.78
2023-05-19T05:20:48.350Z,5.60
2023-05-19T05:23:16.694Z,5.63
2023-05-19T05:25:47.325Z,6.25
2023-05-19T05:28:15.599Z,5.22
2023-05-19T05:30:43.692Z,5.50
2023-05-19T05:33:10.745Z,5.00
2023-05-19T05:35:39.459Z,5.57
2023-05-19T05:38:08.099Z,4.93
2023-05-19T05:40:36.182Z,4.80
2023-05-19T05:43:03.961Z,5.53
2023-05-19T05:45:34.311Z,5.63
2023-05-19T05:48:01.654Z,5.35
2023-05-19T05:50:29.802Z,5.32
2023-05-19T05:52:58.040Z,5.25
2023-05-19T05:55:26.586Z,5.82
2023-05-19T05:57:53.215Z,5.80
2023-05-19T06:00:21.297Z,6.50
2023-05-19T06:02:52.091Z,5.88
2023-05-19T06:05:19.673Z,4.65
2023-05-19T06:07:47.572Z,5.68
2023-05-19T06:10:19.469Z,5.10
2023-05-19T06:12:46.948Z,5.97
2023-05-19T06:17:49.948Z,5.38
2023-05-19T06:20:18.069Z,5.60
2023-05-19T06:22:44.692Z,5.22
2023-05-19T06:25:11.734Z,5.57
2023-05-19T06:27:38.255Z,5.53
2023-05-19T06:32:36.897Z,5.68
2023-05-19T06:37:30.122Z,5.40
2023-05-19T06:39:57.105Z,5.57
2023-05-19T06:42:25.241Z,6.05
2023-05-19T06:45:06.957Z,6.07
2023-05-19T06:47:33.555Z,6.15
2023-05-19T06:50:00.371Z,5.80
2023-05-19T06:52:30.921Z,5.53
2023-05-19T06:54:57.781Z,5.10
2023-05-19T06:59:51.015Z,5.22
2023-05-19T07:02:18.006Z,5.07
2023-05-19T07:07:15.177Z,5.80
2023-05-19T07:09:42.537Z,5.40
2023-05-19T07:12:09.176Z,5.60
2023-05-19T07:17:03.378Z,5.10
2023-05-19T07:19:30.046Z,5.43
2023-05-19T07:21:57.121Z,5.22
2023-05-19T07:24:24.884Z,5.90
2023-05-19T07:26:51.451Z,6.05
2023-05-19T07:31:44.494Z,6.18
2023-05-19T07:34:11.310Z,5.85
2023-05-19T07:36:37.870Z,5.28
2023-05-19T07:41:30.977Z,4.85
2023-05-19T07:46:23.957Z,4.43
2023-05-19T07:48:50.585Z,4.30
2023-05-19T07:53:43.858Z,5.15
2023-05-19T07:56:10.534Z,4.82
2023-05-19T07:58:37.236Z,5.93
2023-05-19T08:01:04.033Z,5.55
2023-05-19T08:03:31.007Z,5.40
2023-05-19T08:05:57.768Z,5.95
2023-05-19T08:10:50.758Z,5.00
2023-05-19T08:15:43.941Z,4.80
2023-05-19T08:18:10.623Z,4.90
2023-05-19T08:20:37.601Z,3.97
2023-05-19T08:23:04.117Z,4.63
2023-05-19T08:27:57.149Z,4.75
2023-05-19T08:32:50.434Z,4.88
2023-05-19T08:37:43.494Z,4.43
2023-05-19T08:42:43.034Z,4.70
2023-05-19T08:45:09.964Z,4.88
2023-05-19T08:47:36.876Z,4.15
2023-05-19T08:50:10.727Z,4.75
2023-05-19T08:52:53.251Z,4.25
2023-05-19T08:55:35.473Z,4.82
2023-05-19T08:58:04.400Z,5.10
2023-05-19T09:00:31.222Z,5.68
2023-05-19T09:03:10.832Z,4.05
2023-05-19T09:05:46.397Z,4.43
2023-05-19T09:08:13.353Z,4.28
2023-05-19T09:10:40.096Z,4.80
2023-05-19T09:13:06.869Z,4.40
2023-05-19T09:15:36.704Z,4.47
2023-05-19T09:18:10.814Z,4.00
2023-05-19T09:20:40.044Z,4.22
2023-05-19T09:23:06.662Z,3.58
2023-05-19T09:25:33.517Z,3.70
2023-05-19T09:28:00.493Z,4.90
2023-05-19T09:30:27.073Z,3.95
2023-05-19T09:32:53.884Z,4.20
2023-05-19T09:40:15.755Z,3.25
2023-05-19T09:42:43.994Z,3.60
2023-05-19T09:45:11.338Z,3.40
2023-05-19T09:47:39.687Z,3.47
2023-05-19T09:50:08.845Z,3.88
2023-05-19T09:52:37.172Z,4.00
2023-05-19T09:55:05.648Z,4.30
2023-05-19T09:57:37.235Z,3.17
2023-05-19T10:00:11.857Z,3.78
2023-05-19T10:02:42.921Z,3.90
2023-05-19T10:05:17.564Z,4.45
2023-05-19T10:07:45.767Z,3.70
2023-05-19T10:10:13.915Z,3.72
2023-05-19T10:12:41.634Z,3.97
2023-05-19T10:15:12.987Z,4.32
2023-05-19T10:17:41.369Z,3.88
2023-05-19T10:20:10.915Z,3.83
2023-05-19T10:22:38.198Z,3.85
2023-05-19T10:25:05.866Z,4.40
2023-05-19T10:27:36.719Z,4.32
2023-05-19T10:30:16.307Z,4.57
2023-05-19T10:32:46.612Z,3.90
2023-05-19T10:35:41.030Z,4.95
2023-05-19T10:38:10.537Z,4.43
2023-05-19T10:40:43.761Z,4.50
2023-05-19T10:43:25.494Z,3.72
2023-05-19T10:45:53.921Z,3.85
2023-05-19T10:48:22.090Z,4.50
2023-05-19T10:50:52.868Z,4.05
2023-05-19T10:53:22.073Z,4.78
2023-05-19T10:55:59.140Z,4.22
2023-05-19T11:01:16.475Z,3.65
2023-05-19T11:03:53.929Z,3.95
2023-05-19T11:06:25.321Z,4.30
2023-05-19T11:09:15.431Z,3.88
2023-05-19T11:11:49.659Z,4.40
2023-05-19T11:14:19.434Z,2.95
2023-05-19T11:16:51.338Z,3.35
2023-05-19T11:19:20.066Z,4.15
2023-05-19T11:21:52.447Z,3.22
2023-05-19T11:24:44.518Z,3.83
2023-05-19T11:27:33.440Z,3.28
2023-05-19T11:30:11.440Z,3.85
2023-05-19T11:32:42.774Z,3.65
2023-05-19T11:35:10.165Z,3.33
2023-05-19T11:37:37.132Z,4.07
2023-05-19T11:40:06.874Z,3.53
2023-05-19T11:42:35.297Z,4.03
2023-05-19T11:45:02.292Z,3.40
2023-05-19T11:47:28.961Z,3.55
2023-05-19T11:49:58.923Z,4.38
2023-05-19T11:52:27.492Z,3.25
2023-05-19T11:54:54.028Z,3.72
2023-05-19T11:59:49.690Z,3.72
2023-05-19T12:02:21.534Z,3.83
2023-05-19T12:04:52.092Z,4.18
2023-05-19T12:07:20.630Z,3.42
2023-05-19T12:09:47.422Z,4.85
2023-05-19T12:12:19.061Z,3.38
2023-05-19T12:14:47.279Z,3.30
2023-05-19T12:17:21.166Z,3.25
2023-05-19T12:19:49.037Z,3.60
2023-05-19T12:22:17.696Z,2.70
2023-05-19T12:24:45.157Z,3.25
2023-05-19T12:27:19.624Z,3.47
2023-05-19T12:30:00.060Z,3.45
2023-05-19T12:32:28.970Z,2.90
2023-05-19T12:34:56.436Z,3.10
2023-05-19T12:37:27.599Z,3.38
2023-05-19T12:39:56.229Z,3.50
2023-05-19T12:42:23.467Z,2.88
2023-05-19T12:44:52.676Z,2.80
2023-05-19T12:47:20.197Z,2.78
2023-05-19T12:49:56.931Z,3.63
2023-05-19T12:52:23.994Z,3.13
2023-05-19T12:54:57.773Z,3.20
2023-05-19T12:57:26.104Z,3.22
2023-05-19T12:59:53.213Z,3.33
2023-05-19T13:04:48.507Z,3.20
2023-05-19T13:07:14.995Z,3.03
2023-05-19T13:12:08.951Z,3.17
2023-05-19T13:14:35.483Z,2.92
2023-05-19T13:19:29.108Z,3.03
2023-05-19T13:21:55.613Z,2.97
2023-05-19T13:26:48.824Z,3.55
2023-05-19T13:29:15.410Z,2.50
2023-05-19T13:31:42.104Z,2.60
2023-05-19T13:34:08.807Z,3.17
2023-05-19T13:36:36.570Z,3.30
2023-05-19T13:39:03.484Z,2.83
2023-05-19T13:41:30.047Z,2.90
2023-05-19T13:46:33.096Z,3.10
2023-05-19T13:49:10.351Z,3.30
2023-05-19T13:54:05.030Z,3.13
2023-05-19T13:56:31.841Z,2.45
2023-05-19T13:58:58.406Z,3.13
2023-05-19T14:03:51.808Z,2.70
2023-05-19T14:06:18.403Z,2.33
2023-05-19T14:11:21.830Z,2.92
2023-05-19T14:13:52.884Z,2.90
2023-05-19T14:16:21.953Z,2.42
2023-05-19T14:18:48.988Z,2.55
2023-05-19T14:21:15.708Z,2.40
2023-05-19T14:23:42.219Z,2.38
2023-05-19T14:28:35.268Z,2.42
2023-05-19T14:31:01.854Z,2.78
2023-05-19T14:33:29.761Z,2.72
2023-05-19T14:36:01.996Z,2.53
2023-05-19T14:38:29.459Z,2.63
2023-05-19T14:40:56.522Z,2.17
2023-05-19T14:43:23.233Z,2.35
2023-05-19T14:45:50.154Z,2.67
2023-05-19T14:48:17.448Z,2.70
2023-05-19T14:50:44.356Z,3.30
2023-05-19T14:53:11.198Z,2.70
2023-05-19T14:55:37.736Z,4.65
2023-05-19T15:00:48.005Z,3.33
2023-05-19T15:03:14.590Z,2.35
2023-05-19T15:05:41.172Z,2.33
2023-05-19T15:10:34.331Z,2.60
2023-05-19T15:13:01.712Z,2.28
2023-05-19T15:15:28.352Z,2.72
2023-05-19T15:17:55.007Z,1.98
2023-05-19T15:20:21.630Z,2.28
2023-05-19T15:22:48.832Z,2.55
2023-05-19T15:25:15.475Z,2.40
2023-05-19T15:27:42.191Z,1.98
2023-05-19T15:30:09.174Z,2.08
2023-05-19T15:32:35.751Z,2.20
2023-05-19T15:35:02.451Z,2.20
2023-05-19T15:37:29.026Z,2.33
2023-05-19T15:42:22.031Z,2.30
2023-05-19T15:47:14.977Z,2.80
2023-05-19T15:52:07.961Z,1.98
2023-05-19T15:57:01.048Z,1.98
2023-05-19T15:59:27.676Z,2.20
2023-05-19T16:04:20.967Z,2.08
2023-05-19T16:06:47.591Z,2.50
2023-05-19T16:11:40.760Z,2.10
2023-05-19T16:14:07.268Z,2.50
2023-05-19T16:19:00.400Z,2.22
2023-05-19T16:21:27.431Z,2.60
2023-05-19T16:26:21.561Z,1.75
2023-05-19T16:28:48.087Z,2.08
2023-05-19T16:33:41.324Z,2.50
2023-05-19T16:36:07.896Z,2.63
2023-05-19T16:41:01.009Z,3.17
2023-05-19T16:45:53.971Z,3.15
2023-05-19T16:50:50.373Z,2.75
2023-05-19T16:53:17.293Z,2.88
2023-05-19T16:55:43.825Z,2.58
2023-05-19T16:59:50.621Z,2.45
2023-05-19T17:04:43.686Z,2.65
2023-05-19T17:09:43.115Z,2.35
2023-05-19T17:12:09.827Z,2.38
2023-05-19T17:14:36.621Z,2.65
2023-05-19T17:17:03.370Z,2.50
2023-05-19T17:19:30.023Z,2.83
2023-05-19T17:21:56.695Z,2.78
2023-05-19T17:24:23.227Z,2.75
2023-05-19T17:29:16.308Z,2.67
2023-05-19T17:34:09.639Z,2.53
2023-05-19T17:36:36.163Z,2.50
2023-05-19T17:41:29.255Z,2.78
2023-05-19T17:43:55.825Z,2.55
2023-05-19T17:48:48.921Z,2.50
2023-05-19T17:53:42.485Z,2.72
2023-05-19T17:56:12.001Z,3.00
2023-05-19T17:58:38.923Z,3.03
2023-05-19T18:01:05.938Z,2.70
2023-05-19T18:03:32.988Z,2.83
2023-05-19T18:05:59.783Z,2.33
2023-05-19T18:08:27.762Z,4.40
2023-05-19T18:10:55.851Z,3.13
2023-05-19T18:13:23.576Z,3.90
2023-05-19T18:15:50.620Z,3.17
2023-05-19T18:18:17.233Z,2.85
2023-05-19T18:20:45.643Z,2.92
2023-05-19T18:23:12.205Z,2.33
2023-05-19T18:28:05.348Z,3.13
2023-05-19T18:30:32.157Z,2.92
2023-05-19T18:33:02.082Z,13.05
2023-05-19T18:35:28.886Z,4.95
2023-05-19T18:37:56.622Z,3.65
2023-05-19T18:40:23.383Z,2.83
2023-05-19T18:42:50.556Z,5.50
2023-05-19T18:45:17.180Z,5.35
2023-05-19T18:50:10.493Z,5.32
2023-05-19T18:52:37.012Z,2.95
2023-05-19T18:57:30.421Z,8.50
2023-05-19T19:02:23.585Z,3.20
2023-05-19T19:04:50.269Z,4.85
2023-05-19T19:07:16.880Z,3.25
2023-05-19T19:12:10.807Z,2.70
2023-05-19T19:14:37.434Z,3.40
2023-05-19T19:19:30.895Z,4.95
2023-05-19T19:21:57.707Z,3.60
2023-05-19T19:24:26.415Z,3.83
2023-05-19T19:26:53.042Z,3.58
2023-05-19T19:31:48.580Z,3.75
2023-05-19T19:34:19.846Z,3.28
2023-05-19T19:36:47.808Z,3.72
2023-05-19T19:39:14.524Z,3.20
2023-05-19T19:41:41.118Z,3.08
2023-05-19T19:44:09.338Z,3.22
2023-05-19T19:46:35.944Z,3.30
2023-05-19T19:49:03.047Z,2.97
2023-05-19T19:51:29.747Z,3.08
2023-05-19T19:53:56.695Z,2.85
2023-05-19T19:56:24.749Z,3.30
2023-05-19T19:58:51.664Z,3.33
2023-05-19T20:01:20.658Z,3.08
2023-05-19T20:03:48.020Z,3.30
2023-05-19T20:06:14.810Z,3.25
2023-05-19T20:08:41.518Z,3.40
2023-05-19T20:11:08.303Z,3.33
2023-05-19T20:13:34.938Z,3.00
2023-05-19T20:16:02.136Z,3.63
2023-05-19T20:18:29.885Z,2.92
2023-05-19T20:20:56.817Z,3.42
2023-05-19T20:23:23.372Z,3.35
2023-05-19T20:28:36.412Z,3.88
2023-05-19T20:33:29.589Z,3.28
2023-05-19T20:35:56.133Z,3.90
2023-05-19T20:40:49.388Z,3.65
2023-05-19T20:43:16.153Z,3.78
2023-05-19T20:45:44.174Z,3.50
2023-05-19T20:48:11.351Z,3.50
2023-05-19T20:50:39.223Z,4.15
2023-05-19T20:53:07.370Z,4.07
2023-05-19T20:55:36.124Z,3.20
2023-05-19T20:58:02.795Z,3.75
2023-05-19T21:02:57.911Z,3.45
2023-05-19T21:05:24.884Z,4.28
2023-05-19T21:07:51.591Z,4.10
2023-05-19T21:10:18.387Z,4.05
2023-05-19T21:12:45.708Z,3.67
2023-05-19T21:15:12.841Z,4.30
2023-05-19T21:17:39.416Z,3.90
2023-05-19T21:22:32.787Z,3.50
2023-05-19T21:27:25.966Z,3.88
2023-05-19T21:32:22.146Z,4.40
2023-05-19T21:34:48.883Z,3.78
2023-05-19T21:37:17.283Z,4.00
2023-05-19T21:39:44.282Z,3.97
2023-05-19T21:42:10.927Z,3.78
2023-05-19T21:44:37.603Z,4.57
2023-05-19T21:47:04.229Z,4.50
2023-05-19T21:51:58.468Z,4.95
2023-05-19T21:54:25.159Z,4.03
2023-05-19T21:56:51.824Z,4.13
2023-05-19T22:17:32.873Z,4.47
2023-05-19T22:22:26.205Z,5.00
2023-05-19T22:24:52.770Z,4.20
2023-05-19T22:29:45.873Z,4.55
2023-05-19T22:34:40.764Z,4.38
2023-05-19T22:37:07.395Z,4.45
2023-05-19T22:42:00.529Z,4.10
2023-05-19T22:44:27.620Z,4.47
2023-05-19T22:49:22.869Z,4.60
2023-05-19T22:51:50.065Z,4.28
2023-05-19T22:54:16.729Z,4.10
2023-05-19T22:59:13.156Z,4.35
2023-05-19T23:04:06.568Z,4.40
2023-05-19T23:06:33.183Z,4.25
2023-05-19T23:11:27.703Z,4.75
2023-05-19T23:13:54.294Z,4.80
2023-05-19T23:18:47.624Z,5.00
2023-05-19T23:21:14.267Z,5.03
2023-05-19T23:23:52.148Z,4.72
2023-05-19T23:26:18.730Z,3.83
2023-05-19T23:31:11.930Z,5.07
2023-05-19T23:33:38.602Z,4.55
2023-05-19T23:36:07.612Z,3.88
2023-05-19T23:38:35.003Z,4.82
2023-05-19T23:41:02.306Z,4.88
2023-05-19T23:43:28.993Z,4.25
2023-05-19T23:45:55.650Z,5.00
2023-05-19T23:48:22.205Z,4.90
2023-05-19T23:53:15.635Z,4.05
2023-05-19T23:55:42.355Z,5.05
2023-05-19T23:58:09.028Z,3.85
